Time;durP1;ratioP1;P1;durP2;ratioP2;P2;SDS_P1;SDS_P2;PMS_P1;PMS_P2;Temp;Humidity;BMP_temperature;BMP_pressure;BME280_temperature;BME280_humidity;BME280_pressure;Samples;Min_cycle;Max_cycle;Signal;HPM_P1;HPM_P2
2021/10/13 00:00:12;;;;;;;32.63;19.32;;;;;;;8.14;70.57;99046.06;1601885;88;21029;-75
2021/10/13 00:02:43;;;;;;;34.90;18.45;;;;;;;8.12;70.51;99046.14;1606348;88;21092;-75
2021/10/13 00:05:12;;;;;;;32.20;17.98;;;;;;;8.13;70.58;99043.63;1556121;91;21068;-75
2021/10/13 00:07:47;;;;;;;32.93;18.62;;;;;;;8.12;70.65;99045.56;1555514;91;21099;-75
2021/10/13 00:10:21;;;;;;;31.35;18.75;;;;;;;8.12;70.73;99036.54;1618838;88;21067;-73
2021/10/13 00:12:48;;;;;;;29.32;17.32;;;;;;;8.07;70.94;99031.19;1619986;88;21039;-75
2021/10/13 00:15:23;;;;;;;28.60;17.60;;;;;;;8.04;71.12;99027.13;1616123;88;21072;-75
2021/10/13 00:17:56;;;;;;;34.60;19.45;;;;;;;8.02;71.33;99027.98;1604653;88;21217;-75
2021/10/13 00:20:22;;;;;;;31.02;17.02;;;;;;;7.99;71.46;99032.19;1617190;88;21143;-75
2021/10/13 00:22:56;;;;;;;38.53;19.05;;;;;;;7.98;71.52;99034.70;1602318;88;21532;-75
2021/10/13 00:25:30;;;;;;;36.33;18.92;;;;;;;8.00;71.55;99033.80;1618996;88;21071;-75
2021/10/13 00:28:01;;;;;;;33.60;18.55;;;;;;;7.97;71.71;99034.43;1590541;88;21564;-75
2021/10/13 00:30:28;;;;;;;34.90;18.77;;;;;;;7.98;71.83;99028.39;1624397;87;21830;-75
2021/10/13 00:32:56;;;;;;;29.20;17.42;;;;;;;7.99;71.85;99023.95;1592192;88;21074;-75
2021/10/13 00:35:24;;;;;;;29.20;17.55;;;;;;;7.97;71.93;99019.34;1617494;88;21131;-76
2021/10/13 00:37:55;;;;;;;31.52;18.37;;;;;;;7.96;72.02;99021.84;1618498;88;21087;-75
2021/10/13 00:40:23;;;;;;;26.93;16.90;;;;;;;7.96;72.08;99025.14;1612292;87;21150;-74
2021/10/13 00:42:53;;;;;;;25.45;16.75;;;;;;;7.96;72.18;99025.96;1606895;88;21651;-74
2021/10/13 00:45:44;;;;;;;32.53;18.40;;;;;;;7.98;72.31;99025.09;1603102;88;21115;-75
2021/10/13 00:48:11;;;;;;;29.92;17.37;;;;;;;7.98;72.39;99034.70;1604218;88;21100;-73
2021/10/13 00:50:42;;;;;;;28.90;18.23;;;;;;;7.97;72.43;99037.72;1608252;88;21068;-75
2021/10/13 00:53:13;;;;;;;29.05;16.27;;;;;;;7.97;72.53;99037.17;1588674;88;21101;-73
2021/10/13 00:55:47;;;;;;;30.02;17.25;;;;;;;7.98;72.49;99031.95;1605227;88;21125;-75
2021/10/13 00:58:13;;;;;;;25.72;16.90;;;;;;;8.01;72.37;99030.50;1609661;88;21072;-74
2021/10/13 01:00:44;;;;;;;30.40;17.07;;;;;;;8.07;72.37;99042.16;1606516;88;21476;-73
2021/10/13 01:03:28;;;;;;;26.30;15.48;;;;;;;8.12;72.30;99033.20;1590740;88;21103;-74
2021/10/13 01:06:12;;;;;;;29.45;17.35;;;;;;;8.16;72.21;99041.07;1585309;88;21090;-75
2021/10/13 01:09:18;;;;;;;26.97;16.55;;;;;;;8.15;72.33;99035.31;1609945;88;21095;-75
2021/10/13 01:12:07;;;;;;;31.50;17.67;;;;;;;8.18;72.39;99029.78;1605990;88;21132;-75
2021/10/13 01:15:13;;;;;;;39.25;19.70;;;;;;;8.17;72.20;99026.80;1606585;86;21080;-75
2021/10/13 01:17:44;;;;;;;32.15;16.80;;;;;;;8.08;72.28;99028.13;1619407;87;21185;-74
2021/10/13 01:20:57;;;;;;;27.73;16.48;;;;;;;8.10;72.58;99030.55;1609638;88;21072;-75
2021/10/13 01:23:45;;;;;;;29.37;16.07;;;;;;;8.13;72.64;99029.91;1607763;88;22203;-74
2021/10/13 01:26:59;;;;;;;32.10;17.57;;;;;;;8.18;72.41;99028.41;1597425;88;21089;-74
2021/10/13 01:29:29;;;;;;;31.42;18.07;;;;;;;8.08;72.34;99019.89;1605782;88;21100;-74
2021/10/13 01:32:01;;;;;;;31.10;17.30;;;;;;;7.95;72.42;99031.77;1608318;88;21169;-74
2021/10/13 01:34:38;;;;;;;29.23;17.42;;;;;;;7.84;72.48;99027.09;1608683;88;21135;-74
2021/10/13 01:37:10;;;;;;;30.88;16.65;;;;;;;7.71;72.63;99023.31;1575540;88;21142;-75
2021/10/13 01:39:44;;;;;;;30.75;18.25;;;;;;;7.62;72.87;99026.81;1556786;90;21167;-75
2021/10/13 01:42:14;;;;;;;28.07;16.85;;;;;;;7.52;73.05;99029.80;1557859;91;21522;-75
2021/10/13 01:44:45;;;;;;;29.32;17.32;;;;;;;7.44;73.26;99029.97;1600969;88;21069;-74
2021/10/13 01:47:12;;;;;;;30.12;16.77;;;;;;;7.40;73.36;99023.50;1597830;88;21032;-75
2021/10/13 01:49:42;;;;;;;32.98;18.05;;;;;;;7.34;73.61;99030.21;1598184;88;21036;-75
2021/10/13 01:52:10;;;;;;;28.00;17.98;;;;;;;7.29;73.85;99033.34;1582011;88;20997;-76
2021/10/13 01:54:43;;;;;;;31.75;18.30;;;;;;;7.25;74.08;99032.91;1534210;92;21602;-75
2021/10/13 01:57:12;;;;;;;32.93;18.40;;;;;;;7.22;74.35;99035.69;1516260;93;21136;-75
2021/10/13 01:59:43;;;;;;;26.62;18.25;;;;;;;7.18;74.53;99032.75;1534644;91;21120;-75
2021/10/13 02:02:11;;;;;;;27.50;16.75;;;;;;;7.20;74.67;99034.39;1601559;88;21154;-75
2021/10/13 02:04:42;;;;;;;27.37;16.62;;;;;;;7.25;74.59;99037.02;1599708;88;21096;-76
2021/10/13 02:07:18;;;;;;;27.82;17.07;;;;;;;7.25;74.62;99040.55;1600566;88;21125;-75
2021/10/13 02:09:48;;;;;;;32.80;18.82;;;;;;;7.31;74.48;99038.51;1580114;88;21024;-76
2021/10/13 02:12:33;;;;;;;30.68;19.17;;;;;;;7.36;74.19;99039.77;1592512;88;21088;-76
2021/10/13 02:15:13;;;;;;;40.33;19.30;;;;;;;7.30;74.23;99045.12;1600959;88;21052;-75
2021/10/13 02:17:43;;;;;;;33.15;19.23;;;;;;;7.32;74.16;99046.18;1600227;88;21059;-74
2021/10/13 02:20:15;;;;;;;35.85;19.55;;;;;;;7.33;73.96;99048.61;1599629;88;21017;-74
2021/10/13 02:22:46;;;;;;;30.10;19.73;;;;;;;7.32;73.90;99057.14;1583694;88;21127;-75
2021/10/13 02:25:13;;;;;;;45.03;18.67;;;;;;;7.32;73.83;99059.88;1603716;88;21058;-75
2021/10/13 02:27:57;;;;;;;31.17;18.20;;;;;;;7.33;73.74;99058.20;1597981;88;21041;-74
2021/10/13 02:30:33;;;;;;;36.17;18.17;;;;;;;7.35;73.62;99062.00;1597683;88;21719;-74
2021/10/13 02:33:05;;;;;;;30.52;18.20;;;;;;;7.34;73.75;99069.95;1601836;88;21020;-74
2021/10/13 02:35:35;;;;;;;31.97;19.67;;;;;;;7.24;74.27;99066.34;1580495;88;21587;-75
2021/10/13 02:38:03;;;;;;;30.05;18.62;;;;;;;7.24;74.58;99064.97;1574563;88;21088;-75
2021/10/13 02:40:34;;;;;;;40.38;21.33;;;;;;;7.26;74.66;99061.37;1626916;87;21797;-74
2021/10/13 02:43:00;;;;;;;36.05;20.25;;;;;;;7.24;74.90;99059.48;1637034;87;20985;-76
2021/10/13 02:45:30;;;;;;;38.10;21.33;;;;;;;7.19;75.32;99059.61;1595324;89;21599;-74
2021/10/13 02:48:00;;;;;;;32.30;20.00;;;;;;;7.13;75.62;99062.22;1592677;89;21043;-75
2021/10/13 02:51:11;;;;;;;28.77;18.20;;;;;;;7.14;75.90;99056.98;1592639;89;21059;-74
2021/10/13 02:53:57;;;;;;;31.80;18.50;;;;;;;7.21;75.88;99064.22;1579120;88;21096;-75
2021/10/13 02:56:35;;;;;;;34.55;21.25;;;;;;;7.29;75.74;99064.03;1641396;87;20993;-74
2021/10/13 02:59:15;;;;;;;30.60;18.55;;;;;;;7.23;75.93;99060.62;1639869;86;21056;-75
2021/10/13 03:01:49;;;;;;;33.33;19.87;;;;;;;7.15;76.14;99055.30;1637931;87;21083;-73
2021/10/13 03:04:20;;;;;;;30.82;18.80;;;;;;;7.09;76.28;99058.45;1591425;89;21040;-74
2021/10/13 03:06:54;;;;;;;36.93;21.52;;;;;;;7.02;76.45;99060.25;1594720;89;21163;-75
2021/10/13 03:09:24;;;;;;;40.70;21.12;;;;;;;6.97;76.65;99067.20;1591348;90;21071;-75
2021/10/13 03:11:50;;;;;;;34.43;20.15;;;;;;;6.91;76.83;99063.75;1594228;89;21071;-73
2021/10/13 03:14:21;;;;;;;33.45;20.02;;;;;;;6.86;77.02;99061.16;1586822;90;21020;-75
2021/10/13 03:16:55;;;;;;;29.35;18.20;;;;;;;6.81;77.18;99065.61;1574591;89;21091;-75
2021/10/13 03:19:24;;;;;;;31.65;19.67;;;;;;;6.80;77.44;99070.02;1609840;88;21116;-75
2021/10/13 03:21:54;;;;;;;34.88;21.62;;;;;;;6.88;77.52;99065.73;1595993;86;21077;-75
2021/10/13 03:24:22;;;;;;;34.70;21.42;;;;;;;6.91;77.49;99076.90;1639649;86;21031;-75
2021/10/13 03:26:52;;;;;;;41.90;22.87;;;;;;;6.94;77.52;99076.28;1631590;86;21041;-75
2021/10/13 03:29:18;;;;;;;38.78;22.80;;;;;;;7.02;77.55;99079.42;1641430;86;21051;-74
2021/10/13 03:31:50;;;;;;;41.40;22.75;;;;;;;7.07;77.38;99079.31;1576136;89;21105;-76
2021/10/13 03:34:36;;;;;;;36.40;21.73;;;;;;;7.04;77.33;99076.64;1637483;87;21505;-75
2021/10/13 03:37:56;;;;;;;35.15;21.10;;;;;;;7.00;77.42;99085.21;1634690;87;21012;-75
2021/10/13 03:40:24;;;;;;;37.05;21.80;;;;;;;6.97;77.58;99078.16;1642580;86;21000;-75
2021/10/13 03:42:53;;;;;;;36.38;21.25;;;;;;;6.94;77.75;99079.02;1595797;88;21052;-75
2021/10/13 03:45:26;;;;;;;37.98;22.13;;;;;;;6.94;77.75;99085.87;1591092;89;21529;-75
2021/10/13 03:47:53;;;;;;;37.85;22.27;;;;;;;6.97;77.81;99088.57;1589343;89;21008;-76
2021/10/13 03:50:21;;;;;;;43.17;23.38;;;;;;;6.99;77.62;99080.86;1593544;89;21040;-75
2021/10/13 03:52:51;;;;;;;40.65;22.77;;;;;;;6.99;77.60;99077.30;1591651;89;21084;-74
2021/10/13 03:55:21;;;;;;;40.25;22.00;;;;;;;6.95;77.63;99078.47;1590314;88;21108;-75
2021/10/13 03:57:53;;;;;;;38.30;22.48;;;;;;;6.94;77.68;99074.91;1589250;89;22646;-75
2021/10/13 04:00:25;;;;;;;33.90;20.82;;;;;;;6.95;77.69;99071.63;1590088;89;21049;-76
2021/10/13 04:02:52;;;;;;;35.58;22.35;;;;;;;6.98;77.56;99076.48;1574591;89;21136;-76
2021/10/13 04:05:23;;;;;;;37.63;23.70;;;;;;;6.95;77.56;99077.10;1568290;89;21120;-76
2021/10/13 04:07:52;;;;;;;33.05;21.62;;;;;;;6.91;77.60;99071.97;1591687;89;21087;-75
2021/10/13 04:10:20;;;;;;;34.75;22.45;;;;;;;6.89;77.72;99074.23;1584709;89;21186;-75
2021/10/13 04:12:53;;;;;;;38.60;23.32;;;;;;;6.86;77.79;99070.73;1585424;89;21521;-75
2021/10/13 04:15:23;;;;;;;38.13;21.52;;;;;;;6.85;77.84;99067.73;1592486;89;21563;-74
2021/10/13 04:17:53;;;;;;;33.58;20.02;;;;;;;6.82;77.95;99068.59;1588913;89;21613;-76
2021/10/13 04:20:21;;;;;;;42.43;22.67;;;;;;;6.85;77.99;99066.36;1590062;88;21039;-73
2021/10/13 04:22:48;;;;;;;40.38;22.95;;;;;;;6.86;77.95;99070.73;1591759;89;21510;-74
2021/10/13 04:25:21;;;;;;;32.85;21.68;;;;;;;6.86;78.06;99063.89;1591185;88;21032;-75
2021/10/13 04:27:52;;;;;;;37.58;21.20;;;;;;;6.84;78.20;99064.75;1593003;89;21063;-75
2021/10/13 04:30:25;;;;;;;35.68;21.40;;;;;;;6.85;78.21;99062.25;1565491;89;21544;-75
2021/10/13 04:32:55;;;;;;;40.80;23.38;;;;;;;6.79;78.30;99069.78;1591733;89;21135;-75
2021/10/13 04:35:31;;;;;;;36.77;22.00;;;;;;;6.72;78.40;99071.53;1584216;89;21067;-76
2021/10/13 04:38:07;;;;;;;36.05;20.82;;;;;;;6.71;78.52;99075.39;1590447;89;21597;-75
2021/10/13 04:40:38;;;;;;;45.43;24.98;;;;;;;6.72;78.64;99072.11;1582327;89;21031;-75
2021/10/13 04:43:11;;;;;;;;;;;;;;;6.71;78.71;99084.98;1608913;88;21063;-75
2021/10/13 04:45:42;;;;;;;36.98;21.70;;;;;;;6.76;78.82;99090.36;1604939;88;20204;-74
2021/10/13 04:48:15;;;;;;;43.70;24.75;;;;;;;6.79;78.86;99091.11;1556199;91;21771;-75
2021/10/13 04:50:47;;;;;;;39.27;24.18;;;;;;;6.82;78.78;99086.39;1592877;88;21074;-73
2021/10/13 04:53:23;;;;;;;49.85;25.35;;;;;;;6.81;78.73;99088.06;1617357;86;21520;-74
2021/10/13 04:55:51;;;;;;;41.13;21.77;;;;;;;6.79;78.80;99087.00;1617568;88;21638;-74
2021/10/13 04:58:21;;;;;;;38.10;21.80;;;;;;;6.81;78.86;99106.69;1615083;87;21079;-75
2021/10/13 05:00:48;;;;;;;39.00;23.02;;;;;;;6.85;78.79;99107.44;1618096;88;21137;-75
2021/10/13 05:03:22;;;;;;;36.05;22.82;;;;;;;6.86;78.81;99110.45;1615458;88;21115;-75
2021/10/13 05:05:51;;;;;;;39.40;22.73;;;;;;;6.88;78.85;99105.45;1615103;86;21120;-75
2021/10/13 05:08:20;;;;;;;42.27;22.13;;;;;;;6.89;78.72;99109.83;1617889;87;21012;-74
2021/10/13 05:10:53;;;;;;;40.90;23.65;;;;;;;6.90;78.79;99103.23;1617648;88;21167;-75
2021/10/13 05:13:21;;;;;;;40.30;23.12;;;;;;;6.87;78.72;99108.77;1619081;88;21139;-75
2021/10/13 05:15:51;;;;;;;37.42;21.65;;;;;;;6.90;78.90;99110.08;1621319;87;21110;-75
2021/10/13 05:18:23;;;;;;;35.92;22.67;;;;;;;6.95;78.85;99112.71;1616756;86;21017;-75
2021/10/13 05:20:53;;;;;;;39.95;22.58;;;;;;;6.97;78.79;99109.12;1615901;88;21506;-75
2021/10/13 05:23:24;;;;;;;37.60;22.25;;;;;;;6.96;78.79;99108.05;1616297;88;21048;-73
2021/10/13 05:25:52;;;;;;;36.75;24.07;;;;;;;6.98;78.91;99114.05;1614799;86;22187;-74
2021/10/13 05:28:20;;;;;;;45.48;24.23;;;;;;;6.99;78.98;99119.22;1619809;86;21020;-75
2021/10/13 05:31:13;;;;;;;35.50;21.33;;;;;;;7.01;79.02;99123.80;1577559;90;21077;-74
2021/10/13 05:33:44;;;;;;;33.02;20.88;;;;;;;7.02;79.04;99119.97;1625292;87;21067;-75
2021/10/13 05:36:11;;;;;;;40.17;22.98;;;;;;;7.08;79.08;99119.86;1626307;87;21563;-75
2021/10/13 05:38:51;;;;;;;44.13;24.60;;;;;;;7.14;78.95;99113.97;1617424;88;21051;-75
2021/10/13 05:41:36;;;;;;;38.67;22.20;;;;;;;7.17;78.87;99120.75;1623904;86;21040;-74
2021/10/13 05:44:05;;;;;;;35.45;22.93;;;;;;;7.20;78.86;99125.61;1566231;90;21056;-75
2021/10/13 05:46:33;;;;;;;35.85;22.52;;;;;;;7.21;78.83;99128.62;1581031;90;21110;-75
2021/10/13 05:49:08;;;;;;;35.48;22.90;;;;;;;7.26;78.76;99131.80;1580706;89;21085;-76
2021/10/13 05:51:40;;;;;;;38.25;22.27;;;;;;;7.30;78.65;99138.30;1582047;89;21326;-75
2021/10/13 05:54:11;;;;;;;49.67;23.75;;;;;;;7.36;78.54;99141.73;1622347;86;21186;-75
2021/10/13 05:56:41;;;;;;;39.40;22.52;;;;;;;7.40;78.19;99146.28;1625981;87;21033;-75
2021/10/13 05:59:07;;;;;;;39.27;21.82;;;;;;;7.40;78.15;99134.52;1584351;90;21132;-74
2021/10/13 06:01:34;;;;;;;40.38;24.63;;;;;;;7.47;78.14;99134.09;1562625;90;21101;-75
2021/10/13 06:04:06;;;;;;;38.30;23.15;;;;;;;7.55;78.14;99141.04;1625637;87;21093;-74
2021/10/13 06:06:36;;;;;;;35.00;21.95;;;;;;;7.65;77.96;99145.47;1624890;87;21048;-74
2021/10/13 06:09:03;;;;;;;38.50;22.02;;;;;;;7.74;77.77;99144.73;1625159;87;21060;-74
2021/10/13 06:11:31;;;;;;;38.35;21.75;;;;;;;7.80;77.63;99147.59;1622896;87;21079;-75
2021/10/13 06:14:00;;;;;;;43.15;24.12;;;;;;;7.85;77.38;99154.88;1639421;85;21430;-75
2021/10/13 06:16:29;;;;;;;38.25;24.85;;;;;;;7.89;77.27;99152.60;1630119;87;21531;-75
2021/10/13 06:19:13;;;;;;;44.53;25.75;;;;;;;7.88;76.92;99153.70;1623062;87;21039;-76
2021/10/13 06:21:47;;;;;;;41.15;23.92;;;;;;;7.91;76.86;99146.80;1633229;86;20990;-74
2021/10/13 06:24:15;;;;;;;45.35;25.65;;;;;;;7.98;76.99;99143.07;1584102;90;22060;-75
2021/10/13 06:26:43;;;;;;;45.52;24.95;;;;;;;8.10;76.93;99137.57;1585975;88;21118;-77
2021/10/13 06:29:13;;;;;;;36.85;25.12;;;;;;;8.12;76.18;99138.08;1580088;90;21545;-75
2021/10/13 06:31:42;;;;;;;30.52;21.42;;;;;;;8.06;75.95;99146.98;1581950;88;21075;-76
2021/10/13 06:34:14;;;;;;;44.45;25.82;;;;;;;8.03;75.87;99147.03;1573075;90;21088;-75
2021/10/13 06:36:44;;;;;;;35.52;22.45;;;;;;;8.06;75.69;99150.28;1628025;87;21035;-75
2021/10/13 06:39:15;;;;;;;37.30;23.12;;;;;;;8.08;75.91;99148.86;1636074;87;21076;-75
2021/10/13 06:41:46;;;;;;;35.10;22.30;;;;;;;8.13;75.68;99164.38;1579454;89;21286;-75
2021/10/13 06:44:15;;;;;;;;;;;;;;;8.17;75.58;99162.65;1627577;86;21031;-76
2021/10/13 06:46:49;;;;;;;41.48;21.15;;;;;;;8.23;75.56;99165.50;1627865;86;20212;-74
2021/10/13 06:49:17;;;;;;;41.73;21.50;;;;;;;8.31;75.50;99164.51;1621351;88;21415;-75
2021/10/13 06:51:45;;;;;;;32.35;20.45;;;;;;;8.40;75.43;99159.31;1611449;87;21060;-73
2021/10/13 06:55:05;;;;;;;39.30;21.27;;;;;;;8.50;75.33;99161.53;1604842;87;21036;-75
2021/10/13 06:57:39;;;;;;;35.58;20.23;;;;;;;8.51;74.37;99163.17;1628037;87;21375;-74
2021/10/13 07:00:13;;;;;;;45.38;21.42;;;;;;;8.48;74.39;99161.84;1613924;86;21055;-75
2021/10/13 07:02:42;;;;;;;35.23;20.52;;;;;;;8.50;73.98;99162.34;1620538;86;21075;-76
2021/10/13 07:05:16;;;;;;;37.25;22.02;;;;;;;8.43;73.78;99167.47;1619772;86;21130;-74
2021/10/13 07:07:52;;;;;;;38.80;22.30;;;;;;;8.35;73.98;99170.98;1629503;86;21075;-75
2021/10/13 07:10:50;;;;;;;41.80;22.95;;;;;;;8.26;73.93;99178.59;1590957;89;21193;-74
2021/10/13 07:13:36;;;;;;;45.00;25.00;;;;;;;8.18;74.30;99177.16;1567907;89;21536;-75
2021/10/13 07:16:02;;;;;;;59.27;28.17;;;;;;;8.07;74.59;99170.55;1574984;88;21105;-75
2021/10/13 07:21:29;;;;;;;41.95;24.15;;;;;;;7.97;75.41;99162.00;1541022;89;21197;-76
2021/10/13 07:23:58;;;;;;;36.10;22.65;;;;;;;7.96;75.59;99154.91;1577552;89;21098;-75
2021/10/13 07:26:27;;;;;;;41.20;21.07;;;;;;;8.02;75.82;99159.14;1576997;88;21626;-77
2021/10/13 07:28:55;;;;;;;38.30;22.07;;;;;;;8.07;75.56;99160.94;1563930;91;21047;-76
2021/10/13 07:31:27;;;;;;;28.45;19.80;;;;;;;8.07;75.57;99166.43;1575787;88;21126;-76
2021/10/13 07:33:59;;;;;;;34.33;21.17;;;;;;;8.13;75.57;99171.24;1577590;90;21998;-77
2021/10/13 07:36:28;;;;;;;35.33;20.80;;;;;;;8.17;75.47;99165.39;1597889;88;21103;-76
2021/10/13 07:39:04;;;;;;;32.53;20.02;;;;;;;8.17;75.43;99180.48;1599261;88;21040;-77
2021/10/13 07:41:39;;;;;;;34.78;19.87;;;;;;;8.21;75.47;99171.04;1614858;87;21048;-77
2021/10/13 07:44:12;;;;;;;37.90;23.30;;;;;;;8.27;75.50;99175.30;1623207;87;21099;-79
2021/10/13 07:46:44;;;;;;;40.60;20.50;;;;;;;8.31;75.26;99170.00;1617681;88;21500;-76
2021/10/13 07:49:15;;;;;;;38.50;19.92;;;;;;;8.35;75.04;99171.80;1597004;88;21063;-77
2021/10/13 07:51:46;;;;;;;35.90;20.05;;;;;;;8.39;74.67;99167.28;1611459;87;21102;-76
2021/10/13 07:54:20;;;;;;;32.53;19.23;;;;;;;8.39;74.73;99167.28;1613783;86;21087;-75
2021/10/13 07:56:52;;;;;;;37.93;18.65;;;;;;;8.43;74.62;99168.05;1619892;86;21071;-74
2021/10/13 07:59:20;;;;;;;26.52;17.17;;;;;;;8.46;74.58;99164.09;1618903;86;21563;-74
2021/10/13 08:01:49;;;;;;;31.90;19.52;;;;;;;8.48;74.50;99170.08;1628119;86;21072;-74
2021/10/13 08:04:21;;;;;;;27.48;18.92;;;;;;;8.53;74.31;99171.33;1609794;86;21089;-75
2021/10/13 08:06:53;;;;;;;32.70;20.72;;;;;;;8.46;74.16;99175.07;1610277;87;21040;-74
2021/10/13 08:09:21;;;;;;;28.25;17.90;;;;;;;8.36;74.29;99170.66;1591131;88;21053;-75
2021/10/13 08:11:48;;;;;;;29.27;17.67;;;;;;;8.38;74.39;99169.79;1588570;88;21068;-75
2021/10/13 08:14:19;;;;;;;29.02;18.65;;;;;;;8.38;74.48;99175.84;1579874;88;21580;-75
2021/10/13 08:16:47;;;;;;;32.88;19.98;;;;;;;8.42;74.67;99177.39;1555705;91;21019;-75
2021/10/13 08:19:15;;;;;;;27.07;18.52;;;;;;;8.40;74.61;99165.36;1619760;88;21071;-75
2021/10/13 08:21:48;;;;;;;31.02;19.55;;;;;;;8.39;74.39;99176.89;1618550;88;21032;-75
2021/10/13 08:24:15;;;;;;;32.67;19.85;;;;;;;8.37;74.40;99172.85;1616225;87;21654;-76
2021/10/13 08:26:46;;;;;;;35.17;19.62;;;;;;;8.35;74.43;99173.17;1616258;88;21087;-76
2021/10/13 08:29:18;;;;;;;;;;;;;;;8.37;74.52;99176.42;1621048;87;21631;-75
2021/10/13 08:31:51;;;;;;;43.15;19.62;;;;;;;8.43;74.52;99172.96;1616663;88;20203;-76
2021/10/13 08:34:19;;;;;;;31.10;18.02;;;;;;;8.46;74.42;99165.46;1622625;86;21092;-76
2021/10/13 08:36:49;;;;;;;35.58;20.23;;;;;;;8.50;74.38;99166.47;1617478;87;21145;-76
2021/10/13 08:39:16;;;;;;;28.87;18.60;;;;;;;8.56;74.43;99160.88;1621900;88;21559;-75
2021/10/13 08:41:53;;;;;;;32.60;20.52;;;;;;;8.69;74.26;99164.09;1623040;87;21115;-75
2021/10/13 08:44:31;;;;;;;33.23;18.25;;;;;;;8.78;73.74;99167.44;1576315;89;21652;-76
2021/10/13 08:47:11;;;;;;;45.38;22.05;;;;;;;8.84;73.34;99167.53;1554018;89;21123;-75
2021/10/13 08:49:45;;;;;;;42.53;23.30;;;;;;;8.83;73.01;99170.04;1598492;88;21051;-75
2021/10/13 08:52:14;;;;;;;68.65;29.42;;;;;;;8.78;72.83;99166.88;1636876;87;21046;-76
2021/10/13 08:54:44;;;;;;;47.38;22.80;;;;;;;8.78;72.83;99168.25;1600212;89;21075;-76
2021/10/13 08:57:22;;;;;;;72.70;28.00;;;;;;;8.76;72.99;99164.45;1625928;87;21078;-75
2021/10/13 08:59:55;;;;;;;42.73;22.95;;;;;;;8.80;73.10;99166.00;1628542;87;21039;-76
2021/10/13 09:02:41;;;;;;;59.10;28.57;;;;;;;8.89;73.23;99172.33;1601293;87;21052;-76
2021/10/13 09:05:15;;;;;;;53.58;26.73;;;;;;;9.01;72.99;99169.53;1628264;87;21110;-77
2021/10/13 09:07:52;;;;;;;36.23;21.40;;;;;;;9.05;71.94;99169.71;1625447;86;21092;-76
2021/10/13 09:10:32;;;;;;;31.80;19.25;;;;;;;9.01;71.79;99172.28;1622853;86;21067;-76
2021/10/13 09:13:05;;;;;;;32.23;19.50;;;;;;;9.06;71.06;99174.09;1619094;88;21096;-75
2021/10/13 09:15:36;;;;;;;33.00;20.77;;;;;;;9.01;70.90;99176.41;1615180;88;21140;-75
2021/10/13 09:18:06;;;;;;;34.60;19.73;;;;;;;8.95;70.95;99183.18;1588708;90;21534;-75
2021/10/13 09:20:41;;;;;;;34.00;19.70;;;;;;;8.93;71.27;99171.69;1588274;90;21507;-76
2021/10/13 09:23:44;;;;;;;32.53;20.32;;;;;;;8.94;71.17;99181.57;1569064;90;21122;-76
2021/10/13 09:26:14;;;;;;;32.33;19.10;;;;;;;8.97;71.27;99178.97;1590563;87;21532;-76
2021/10/13 09:28:49;;;;;;;34.33;18.27;;;;;;;9.01;71.14;99177.78;1628477;87;21078;-75
2021/10/13 09:31:21;;;;;;;;;;;;;;;9.05;71.28;99181.52;1624414;87;21094;-75
2021/10/13 09:34:01;;;;;;;43.13;21.97;;;;;;;9.12;71.19;99185.19;1632525;87;20203;-76
2021/10/13 09:36:42;;;;;;;30.32;19.52;;;;;;;9.21;71.12;99186.00;1592019;89;21028;-74
2021/10/13 09:39:17;;;;;;;31.70;19.07;;;;;;;9.25;70.22;99184.25;1627184;87;21131;-75
2021/10/13 09:42:12;;;;;;;27.93;17.45;;;;;;;9.18;69.76;99184.48;1628826;87;21114;-75
2021/10/13 09:44:54;;;;;;;31.70;18.00;;;;;;;9.13;69.68;99181.30;1615704;88;21533;-76
2021/10/13 09:47:36;;;;;;;35.40;20.20;;;;;;;9.19;69.71;99186.09;1600055;88;21100;-77
2021/10/13 09:50:27;;;;;;;36.98;21.42;;;;;;;9.19;69.68;99185.54;1616735;88;21040;-75
2021/10/13 09:53:15;;;;;;;34.80;20.88;;;;;;;9.15;69.91;99184.55;1595359;88;21040;-75
2021/10/13 09:55:48;;;;;;;33.55;19.67;;;;;;;9.17;70.06;99183.66;1617920;88;21784;-74
2021/10/13 09:58:39;;;;;;;41.92;21.62;;;;;;;9.25;70.09;99189.75;1619608;88;21064;-74
2021/10/13 10:01:22;;;;;;;30.20;17.82;;;;;;;9.33;69.82;99185.97;1623588;88;21063;-75
2021/10/13 10:03:50;;;;;;;36.60;19.00;;;;;;;9.36;69.75;99188.08;1616655;88;21081;-77
2021/10/13 10:06:18;;;;;;;36.70;20.95;;;;;;;9.38;69.26;99183.08;1585400;88;21078;-76
2021/10/13 10:09:04;;;;;;;35.13;20.65;;;;;;;9.36;69.25;99183.95;1569114;91;21125;-76
2021/10/13 10:11:40;;;;;;;39.33;21.82;;;;;;;9.37;69.22;99185.56;1611808;88;21129;-76
2021/10/13 10:14:40;;;;;;;33.15;19.92;;;;;;;9.41;69.35;99178.86;1611029;88;21059;-76
2021/10/13 10:17:12;;;;;;;41.13;20.55;;;;;;;9.49;68.98;99183.56;1607737;88;21076;-75
2021/10/13 10:19:45;;;;;;;35.48;19.75;;;;;;;9.48;68.36;99186.88;1601483;88;21056;-75
2021/10/13 10:22:18;;;;;;;31.82;20.52;;;;;;;9.46;68.46;99186.41;1590499;88;21121;-76
2021/10/13 10:24:54;;;;;;;34.33;21.17;;;;;;;9.46;68.40;99177.34;1586824;88;21060;-74
2021/10/13 10:27:39;;;;;;;31.45;18.95;;;;;;;9.46;68.40;99177.34;1609203;86;21111;-75
2021/10/13 10:30:33;;;;;;;28.73;20.60;;;;;;;9.48;68.20;99185.50;1571659;91;21053;-75
2021/10/13 10:33:14;;;;;;;40.48;20.17;;;;;;;9.38;68.21;99185.23;1595541;86;21127;-75
2021/10/13 10:35:45;;;;;;;37.15;21.30;;;;;;;9.36;68.36;99182.58;1611862;88;21076;-75
2021/10/13 10:38:18;;;;;;;30.97;19.65;;;;;;;9.35;68.43;99180.39;1605594;88;21612;-75
2021/10/13 10:40:51;;;;;;;32.33;19.92;;;;;;;9.40;68.61;99184.92;1608503;88;21063;-75
2021/10/13 10:43:24;;;;;;;33.10;19.62;;;;;;;9.47;68.39;99184.45;1612861;86;21147;-76
2021/10/13 10:45:55;;;;;;;34.95;20.00;;;;;;;9.50;68.16;99187.37;1598803;88;21059;-76
2021/10/13 10:48:46;;;;;;;28.70;18.27;;;;;;;9.55;68.11;99180.92;1614323;88;21106;-76
2021/10/13 10:51:16;;;;;;;31.65;16.93;;;;;;;9.53;67.01;99180.43;1624185;86;21547;-75
2021/10/13 10:53:45;;;;;;;26.15;14.73;;;;;;;9.49;66.59;99184.94;1624619;86;21171;-75
2021/10/13 10:56:28;;;;;;;21.65;13.80;;;;;;;9.47;66.74;99180.32;1623896;86;22203;-76
2021/10/13 10:59:02;;;;;;;22.55;14.35;;;;;;;9.49;66.35;99181.63;1632887;87;21012;-76
2021/10/13 11:01:36;;;;;;;22.07;14.23;;;;;;;9.52;65.83;99187.63;1607085;88;21044;-73
2021/10/13 11:04:18;;;;;;;28.95;14.13;;;;;;;9.53;65.96;99186.48;1620383;86;21037;-75
2021/10/13 11:06:48;;;;;;;31.68;14.30;;;;;;;9.57;66.08;99183.35;1632561;87;21059;-76
2021/10/13 11:09:18;;;;;;;26.68;14.75;;;;;;;9.62;65.94;99181.83;1622302;86;21146;-75
2021/10/13 11:11:50;;;;;;;33.40;14.58;;;;;;;9.66;65.94;99187.47;1569025;88;21047;-75
2021/10/13 11:14:27;;;;;;;23.05;14.38;;;;;;;9.68;65.99;99181.91;1616789;87;22301;-76
2021/10/13 11:16:58;;;;;;;35.40;15.88;;;;;;;9.76;65.63;99183.61;1617664;88;21142;-75
2021/10/13 11:19:38;;;;;;;28.00;16.10;;;;;;;9.78;65.89;99177.20;1624219;87;21590;-74
2021/10/13 11:22:10;;;;;;;24.57;15.28;;;;;;;9.85;65.65;99180.28;1622609;87;21071;-76
2021/10/13 11:24:44;;;;;;;23.60;17.02;;;;;;;9.86;65.56;99174.45;1606277;87;21051;-75
2021/10/13 11:27:13;;;;;;;25.00;15.35;;;;;;;9.88;65.63;99182.38;1607313;88;21707;-76
2021/10/13 11:29:47;;;;;;;28.50;15.68;;;;;;;9.89;65.76;99179.89;1621990;87;21090;-75
2021/10/13 11:32:13;;;;;;;32.08;15.65;;;;;;;9.90;65.87;99182.88;1604632;88;21146;-75
2021/10/13 11:34:57;;;;;;;27.35;16.97;;;;;;;9.93;65.93;99178.09;1590705;88;21100;-76
2021/10/13 11:37:27;;;;;;;36.80;22.58;;;;;;;9.94;66.09;99177.53;1606630;88;21567;-77
2021/10/13 11:40:01;;;;;;;49.00;24.45;;;;;;;9.88;66.25;99179.63;1624107;88;21092;-77
2021/10/13 11:42:28;;;;;;;41.10;26.35;;;;;;;9.79;66.82;99182.96;1623909;87;21128;-78
2021/10/13 11:44:58;;;;;;;40.28;25.10;;;;;;;9.74;67.38;99180.59;1628472;86;21043;-77
2021/10/13 11:47:37;;;;;;;41.50;23.75;;;;;;;9.67;67.72;99183.02;1622060;88;21048;-76
2021/10/13 11:50:18;;;;;;;38.83;23.30;;;;;;;9.63;68.23;99182.05;1624196;86;21563;-75
2021/10/13 11:52:54;;;;;;;39.88;24.23;;;;;;;9.60;68.42;99178.58;1619200;86;21116;-76
2021/10/13 11:55:44;;;;;;;;;;;;;;;;;;;;;
2021/10/13 11:58:00;;;;;;;42.40;23.70;;;;;;;9.55;68.56;99177.36;1613972;87;21111;-76
2021/10/13 12:00:34;;;;;;;44.20;23.30;;;;;;;9.54;68.78;99181.22;1609038;87;21512;-76